ME04 weather

Ilco Landing Area Seaplane Base
Clayton Lake, Maine, United States

Public forecast

Using degrees Fahrenheit for public forecast. Weather courtesy of forecast.io.

METAR (pilot weather report)

Closest report is Northern Maine Regional Airport at Presque Isle, 61.4 nm (113.8 km) E. Retrieved 2019/07/17 19:03 UTC (35 minutes ago):

KPQI 171903Z AUTO 34012KT 10SM 25/19 A2973 RMK AO2 WSHFT 1843 LTG DSNT E AND SW

TAF (pilot weather forecast)

Closest forecast is Northern Maine Regional Airport at Presque Isle, 61.4 nm (113.8 km) E. Retrieved 2019/07/17 18:22 UTC (1 hour ago):

TAF KPQI 171720Z 1718/1818 28008KT 6SM -SHRA VCTS BKN040CB FM172000 31009KT 6SM -SHRA VCTS BKN040CB FM172100 32009KT P6SM VCTS BKN040CB FM172200 32008KT P6SM SCT200 FM180700 00000KT P6SM SKC